sensor_id;sensor_type;location;lat;lon;timestamp;P1;P2;P0
62249;PMS5003;48237;50.140;8.486;2023-04-03T00:00:33;9;4;
62249;PMS5003;48237;50.140;8.486;2023-04-03T00:03:00;3;3;
62249;PMS5003;48237;50.140;8.486;2023-04-03T00:05:27;5;2;
62249;PMS5003;48237;50.140;8.486;2023-04-03T00:07:54;5;4;
62249;PMS5003;48237;50.140;8.486;2023-04-03T00:10:22;4;3;
62249;PMS5003;48237;50.140;8.486;2023-04-03T00:12:49;4;2;
62249;PMS5003;48237;50.140;8.486;2023-04-03T00:15:16;4;3;
62249;PMS5003;48237;50.140;8.486;2023-04-03T00:17:43;4;4;
62249;PMS5003;48237;50.140;8.486;2023-04-03T00:20:10;5;1;
62249;PMS5003;48237;50.140;8.486;2023-04-03T00:22:37;3;2;
62249;PMS5003;48237;50.140;8.486;2023-04-03T00:25:05;4;3;
62249;PMS5003;48237;50.140;8.486;2023-04-03T00:27:35;5;3;
62249;PMS5003;48237;50.140;8.486;2023-04-03T00:30:03;5;2;
62249;PMS5003;48237;50.140;8.486;2023-04-03T00:32:30;5;3;
62249;PMS5003;48237;50.140;8.486;2023-04-03T00:34:58;2;2;
62249;PMS5003;48237;50.140;8.486;2023-04-03T00:37:25;4;2;
62249;PMS5003;48237;50.140;8.486;2023-04-03T00:39:52;6;3;
62249;PMS5003;48237;50.140;8.486;2023-04-03T00:42:19;2;2;
62249;PMS5003;48237;50.140;8.486;2023-04-03T00:45:24;9;3;
62249;PMS5003;48237;50.140;8.486;2023-04-03T00:47:55;3;3;
62249;PMS5003;48237;50.140;8.486;2023-04-03T00:50:23;4;3;
62249;PMS5003;48237;50.140;8.486;2023-04-03T00:52:50;3;3;
62249;PMS5003;48237;50.140;8.486;2023-04-03T00:55:17;4;4;
62249;PMS5003;48237;50.140;8.486;2023-04-03T00:57:45;3;2;
62249;PMS5003;48237;50.140;8.486;2023-04-03T01:00:14;3;3;
62249;PMS5003;48237;50.140;8.486;2023-04-03T01:02:45;5;3;
62249;PMS5003;48237;50.140;8.486;2023-04-03T01:05:12;5;3;
62249;PMS5003;48237;50.140;8.486;2023-04-03T01:07:42;5;2;
62249;PMS5003;48237;50.140;8.486;2023-04-03T01:10:11;5;3;
62249;PMS5003;48237;50.140;8.486;2023-04-03T01:12:41;3;2;
62249;PMS5003;48237;50.140;8.486;2023-04-03T01:15:11;4;3;
62249;PMS5003;48237;50.140;8.486;2023-04-03T01:17:40;2;2;
62249;PMS5003;48237;50.140;8.486;2023-04-03T01:20:46;3;2;
62249;PMS5003;48237;50.140;8.486;2023-04-03T01:23:36;5;3;
62249;PMS5003;48237;50.140;8.486;2023-04-03T01:26:13;5;4;
62249;PMS5003;48237;50.140;8.486;2023-04-03T01:28:41;4;4;
62249;PMS5003;48237;50.140;8.486;2023-04-03T01:31:10;4;4;
62249;PMS5003;48237;50.140;8.486;2023-04-03T01:33:45;2;2;
62249;PMS5003;48237;50.140;8.486;2023-04-03T01:36:14;2;2;
62249;PMS5003;48237;50.140;8.486;2023-04-03T01:38:42;4;4;
62249;PMS5003;48237;50.140;8.486;2023-04-03T01:41:09;3;3;
62249;PMS5003;48237;50.140;8.486;2023-04-03T01:43:37;7;4;
62249;PMS5003;48237;50.140;8.486;2023-04-03T01:46:04;7;4;
62249;PMS5003;48237;50.140;8.486;2023-04-03T01:48:31;4;4;
62249;PMS5003;48237;50.140;8.486;2023-04-03T01:50:58;7;3;
62249;PMS5003;48237;50.140;8.486;2023-04-03T01:53:25;4;2;
62249;PMS5003;48237;50.140;8.486;2023-04-03T01:55:52;5;3;
62249;PMS5003;48237;50.140;8.486;2023-04-03T01:58:20;4;2;
62249;PMS5003;48237;50.140;8.486;2023-04-03T02:00:47;5;4;
62249;PMS5003;48237;50.140;8.486;2023-04-03T02:03:14;6;3;
62249;PMS5003;48237;50.140;8.486;2023-04-03T02:05:41;4;4;
62249;PMS5003;48237;50.140;8.486;2023-04-03T02:08:08;7;5;
62249;PMS5003;48237;50.140;8.486;2023-04-03T02:10:36;5;3;
62249;PMS5003;48237;50.140;8.486;2023-04-03T02:13:03;4;2;
62249;PMS5003;48237;50.140;8.486;2023-04-03T02:15:30;4;4;
62249;PMS5003;48237;50.140;8.486;2023-04-03T02:17:57;3;3;
62249;PMS5003;48237;50.140;8.486;2023-04-03T02:20:24;5;3;
62249;PMS5003;48237;50.140;8.486;2023-04-03T02:22:51;6;5;
62249;PMS5003;48237;50.140;8.486;2023-04-03T02:25:19;4;4;
62249;PMS5003;48237;50.140;8.486;2023-04-03T02:27:46;4;4;
62249;PMS5003;48237;50.140;8.486;2023-04-03T02:30:13;4;4;
62249;PMS5003;48237;50.140;8.486;2023-04-03T02:32:40;3;3;
62249;PMS5003;48237;50.140;8.486;2023-04-03T02:35:08;4;4;
62249;PMS5003;48237;50.140;8.486;2023-04-03T02:37:36;4;4;
62249;PMS5003;48237;50.140;8.486;2023-04-03T02:40:04;4;4;
62249;PMS5003;48237;50.140;8.486;2023-04-03T02:42:33;5;4;
62249;PMS5003;48237;50.140;8.486;2023-04-03T02:45:00;4;3;
62249;PMS5003;48237;50.140;8.486;2023-04-03T02:47:27;5;3;
62249;PMS5003;48237;50.140;8.486;2023-04-03T02:49:54;5;5;
62249;PMS5003;48237;50.140;8.486;2023-04-03T02:52:21;3;3;
62249;PMS5003;48237;50.140;8.486;2023-04-03T02:54:48;6;4;
62249;PMS5003;48237;50.140;8.486;2023-04-03T02:57:16;7;4;
62249;PMS5003;48237;50.140;8.486;2023-04-03T02:59:43;5;3;
62249;PMS5003;48237;50.140;8.486;2023-04-03T03:02:10;3;3;
62249;PMS5003;48237;50.140;8.486;2023-04-03T03:04:37;7;5;
62249;PMS5003;48237;50.140;8.486;2023-04-03T03:07:05;5;3;
62249;PMS5003;48237;50.140;8.486;2023-04-03T03:09:32;5;4;
62249;PMS5003;48237;50.140;8.486;2023-04-03T03:12:00;5;4;
62249;PMS5003;48237;50.140;8.486;2023-04-03T03:14:27;4;2;
62249;PMS5003;48237;50.140;8.486;2023-04-03T03:16:54;3;3;
62249;PMS5003;48237;50.140;8.486;2023-04-03T03:19:21;5;4;
62249;PMS5003;48237;50.140;8.486;2023-04-03T03:21:49;4;4;
62249;PMS5003;48237;50.140;8.486;2023-04-03T03:24:16;2;2;
62249;PMS5003;48237;50.140;8.486;2023-04-03T03:26:43;6;4;
62249;PMS5003;48237;50.140;8.486;2023-04-03T03:29:10;4;3;
62249;PMS5003;48237;50.140;8.486;2023-04-03T03:31:37;3;3;
62249;PMS5003;48237;50.140;8.486;2023-04-03T03:34:04;6;3;
62249;PMS5003;48237;50.140;8.486;2023-04-03T03:36:31;3;3;
62249;PMS5003;48237;50.140;8.486;2023-04-03T03:38:59;3;3;
62249;PMS5003;48237;50.140;8.486;2023-04-03T03:41:26;4;4;
62249;PMS5003;48237;50.140;8.486;2023-04-03T03:43:53;8;4;
62249;PMS5003;48237;50.140;8.486;2023-04-03T03:46:20;4;2;
62249;PMS5003;48237;50.140;8.486;2023-04-03T03:48:48;7;4;
62249;PMS5003;48237;50.140;8.486;2023-04-03T03:51:15;4;3;
62249;PMS5003;48237;50.140;8.486;2023-04-03T03:53:42;4;2;
62249;PMS5003;48237;50.140;8.486;2023-04-03T03:56:09;2;2;
62249;PMS5003;48237;50.140;8.486;2023-04-03T03:58:36;3;3;
62249;PMS5003;48237;50.140;8.486;2023-04-03T04:01:04;2;2;
62249;PMS5003;48237;50.140;8.486;2023-04-03T04:03:33;5;3;
62249;PMS5003;48237;50.140;8.486;2023-04-03T04:06:00;5;2;
62249;PMS5003;48237;50.140;8.486;2023-04-03T04:08:27;3;2;
62249;PMS5003;48237;50.140;8.486;2023-04-03T04:10:54;4;4;
62249;PMS5003;48237;50.140;8.486;2023-04-03T04:13:22;5;2;
62249;PMS5003;48237;50.140;8.486;2023-04-03T04:15:50;3;3;
62249;PMS5003;48237;50.140;8.486;2023-04-03T04:18:17;2;2;
62249;PMS5003;48237;50.140;8.486;2023-04-03T04:20:44;5;2;
62249;PMS5003;48237;50.140;8.486;2023-04-03T04:23:11;3;3;
62249;PMS5003;48237;50.140;8.486;2023-04-03T04:25:39;3;2;
62249;PMS5003;48237;50.140;8.486;2023-04-03T04:28:06;5;4;
62249;PMS5003;48237;50.140;8.486;2023-04-03T04:30:33;7;4;
62249;PMS5003;48237;50.140;8.486;2023-04-03T04:33:00;5;2;
62249;PMS5003;48237;50.140;8.486;2023-04-03T04:35:28;7;4;
62249;PMS5003;48237;50.140;8.486;2023-04-03T04:37:55;2;2;
62249;PMS5003;48237;50.140;8.486;2023-04-03T04:40:22;4;2;
62249;PMS5003;48237;50.140;8.486;2023-04-03T04:42:49;2;2;
62249;PMS5003;48237;50.140;8.486;2023-04-03T04:45:17;11;3;
62249;PMS5003;48237;50.140;8.486;2023-04-03T04:47:45;7;4;
62249;PMS5003;48237;50.140;8.486;2023-04-03T04:50:12;7;5;
62249;PMS5003;48237;50.140;8.486;2023-04-03T04:52:39;4;4;
62249;PMS5003;48237;50.140;8.486;2023-04-03T04:55:07;7;4;
62249;PMS5003;48237;50.140;8.486;2023-04-03T04:57:35;6;4;
62249;PMS5003;48237;50.140;8.486;2023-04-03T05:00:02;5;4;
62249;PMS5003;48237;50.140;8.486;2023-04-03T05:02:30;3;3;
62249;PMS5003;48237;50.140;8.486;2023-04-03T05:04:57;7;4;
62249;PMS5003;48237;50.140;8.486;2023-04-03T05:07:24;8;8;
62249;PMS5003;48237;50.140;8.486;2023-04-03T05:09:51;8;4;
62249;PMS5003;48237;50.140;8.486;2023-04-03T05:12:19;5;4;
62249;PMS5003;48237;50.140;8.486;2023-04-03T05:14:46;6;3;
62249;PMS5003;48237;50.140;8.486;2023-04-03T05:17:13;4;3;
62249;PMS5003;48237;50.140;8.486;2023-04-03T05:19:40;7;7;
62249;PMS5003;48237;50.140;8.486;2023-04-03T05:22:07;6;4;
62249;PMS5003;48237;50.140;8.486;2023-04-03T05:24:34;8;5;
62249;PMS5003;48237;50.140;8.486;2023-04-03T05:27:02;5;5;
62249;PMS5003;48237;50.140;8.486;2023-04-03T05:29:29;6;3;
62249;PMS5003;48237;50.140;8.486;2023-04-03T05:31:57;5;3;
62249;PMS5003;48237;50.140;8.486;2023-04-03T05:34:24;6;4;
62249;PMS5003;48237;50.140;8.486;2023-04-03T05:36:51;3;3;
62249;PMS5003;48237;50.140;8.486;2023-04-03T05:39:19;7;6;
62249;PMS5003;48237;50.140;8.486;2023-04-03T05:41:46;3;3;
62249;PMS5003;48237;50.140;8.486;2023-04-03T05:44:13;4;4;
62249;PMS5003;48237;50.140;8.486;2023-04-03T05:46:41;6;5;
62249;PMS5003;48237;50.140;8.486;2023-04-03T05:49:08;6;4;
62249;PMS5003;48237;50.140;8.486;2023-04-03T05:51:36;7;3;
62249;PMS5003;48237;50.140;8.486;2023-04-03T05:54:06;4;4;
62249;PMS5003;48237;50.140;8.486;2023-04-03T05:56:37;4;4;
62249;PMS5003;48237;50.140;8.486;2023-04-03T05:59:05;3;3;
62249;PMS5003;48237;50.140;8.486;2023-04-03T06:01:32;5;5;
62249;PMS5003;48237;50.140;8.486;2023-04-03T06:03:59;6;4;
62249;PMS5003;48237;50.140;8.486;2023-04-03T06:06:33;6;3;
62249;PMS5003;48237;50.140;8.486;2023-04-03T06:09:10;6;4;
62249;PMS5003;48237;50.140;8.486;2023-04-03T06:11:37;3;3;
62249;PMS5003;48237;50.140;8.486;2023-04-03T06:14:05;5;3;
62249;PMS5003;48237;50.140;8.486;2023-04-03T06:16:32;6;4;
62249;PMS5003;48237;50.140;8.486;2023-04-03T06:18:59;3;3;
62249;PMS5003;48237;50.140;8.486;2023-04-03T06:21:26;5;3;
62249;PMS5003;48237;50.140;8.486;2023-04-03T06:23:54;6;4;
62249;PMS5003;48237;50.140;8.486;2023-04-03T06:26:21;6;6;
62249;PMS5003;48237;50.140;8.486;2023-04-03T06:28:48;5;3;
62249;PMS5003;48237;50.140;8.486;2023-04-03T06:31:15;3;3;
62249;PMS5003;48237;50.140;8.486;2023-04-03T06:33:43;4;4;
62249;PMS5003;48237;50.140;8.486;2023-04-03T06:36:10;3;3;
62249;PMS5003;48237;50.140;8.486;2023-04-03T06:38:38;3;3;
62249;PMS5003;48237;50.140;8.486;2023-04-03T06:41:05;5;4;
62249;PMS5003;48237;50.140;8.486;2023-04-03T06:43:33;5;3;
62249;PMS5003;48237;50.140;8.486;2023-04-03T06:46:00;6;4;
62249;PMS5003;48237;50.140;8.486;2023-04-03T06:48:27;4;2;
62249;PMS5003;48237;50.140;8.486;2023-04-03T06:50:54;5;5;
62249;PMS5003;48237;50.140;8.486;2023-04-03T06:53:22;4;4;
62249;PMS5003;48237;50.140;8.486;2023-04-03T06:55:49;7;3;
62249;PMS5003;48237;50.140;8.486;2023-04-03T06:58:16;7;5;
62249;PMS5003;48237;50.140;8.486;2023-04-03T07:00:43;9;6;
62249;PMS5003;48237;50.140;8.486;2023-04-03T07:03:10;4;4;
62249;PMS5003;48237;50.140;8.486;2023-04-03T07:05:38;5;5;
62249;PMS5003;48237;50.140;8.486;2023-04-03T07:08:05;7;5;
62249;PMS5003;48237;50.140;8.486;2023-04-03T07:10:32;5;4;
62249;PMS5003;48237;50.140;8.486;2023-04-03T07:12:59;5;5;
62249;PMS5003;48237;50.140;8.486;2023-04-03T07:15:27;5;5;
62249;PMS5003;48237;50.140;8.486;2023-04-03T07:17:54;4;4;
62249;PMS5003;48237;50.140;8.486;2023-04-03T07:20:21;5;4;
62249;PMS5003;48237;50.140;8.486;2023-04-03T07:22:48;4;4;
62249;PMS5003;48237;50.140;8.486;2023-04-03T07:25:16;8;4;
62249;PMS5003;48237;50.140;8.486;2023-04-03T07:27:43;7;4;
62249;PMS5003;48237;50.140;8.486;2023-04-03T07:30:10;4;4;
62249;PMS5003;48237;50.140;8.486;2023-04-03T07:32:38;8;4;
62249;PMS5003;48237;50.140;8.486;2023-04-03T07:35:05;5;5;
62249;PMS5003;48237;50.140;8.486;2023-04-03T07:37:32;7;5;
62249;PMS5003;48237;50.140;8.486;2023-04-03T07:40:00;11;6;
62249;PMS5003;48237;50.140;8.486;2023-04-03T07:42:27;7;4;
62249;PMS5003;48237;50.140;8.486;2023-04-03T07:44:54;5;5;
62249;PMS5003;48237;50.140;8.486;2023-04-03T07:47:21;6;4;
62249;PMS5003;48237;50.140;8.486;2023-04-03T07:49:49;9;5;
62249;PMS5003;48237;50.140;8.486;2023-04-03T07:52:16;7;7;
62249;PMS5003;48237;50.140;8.486;2023-04-03T07:54:43;8;5;
62249;PMS5003;48237;50.140;8.486;2023-04-03T07:57:10;8;7;
62249;PMS5003;48237;50.140;8.486;2023-04-03T07:59:37;9;7;
62249;PMS5003;48237;50.140;8.486;2023-04-03T08:02:04;8;7;
62249;PMS5003;48237;50.140;8.486;2023-04-03T08:04:32;5;5;
62249;PMS5003;48237;50.140;8.486;2023-04-03T08:06:59;10;7;
62249;PMS5003;48237;50.140;8.486;2023-04-03T08:09:26;8;7;
62249;PMS5003;48237;50.140;8.486;2023-04-03T08:11:53;7;6;
62249;PMS5003;48237;50.140;8.486;2023-04-03T08:14:20;9;6;
62249;PMS5003;48237;50.140;8.486;2023-04-03T08:16:47;14;11;
62249;PMS5003;48237;50.140;8.486;2023-04-03T08:19:15;7;7;
62249;PMS5003;48237;50.140;8.486;2023-04-03T08:21:43;10;7;
62249;PMS5003;48237;50.140;8.486;2023-04-03T08:24:10;7;5;
62249;PMS5003;48237;50.140;8.486;2023-04-03T08:26:37;6;6;
62249;PMS5003;48237;50.140;8.486;2023-04-03T08:29:04;8;7;
62249;PMS5003;48237;50.140;8.486;2023-04-03T08:31:31;5;5;
62249;PMS5003;48237;50.140;8.486;2023-04-03T08:33:59;7;6;
62249;PMS5003;48237;50.140;8.486;2023-04-03T08:36:27;6;6;
62249;PMS5003;48237;50.140;8.486;2023-04-03T08:38:55;9;7;
62249;PMS5003;48237;50.140;8.486;2023-04-03T08:41:26;6;6;
62249;PMS5003;48237;50.140;8.486;2023-04-03T08:44:02;7;7;
62249;PMS5003;48237;50.140;8.486;2023-04-03T08:46:40;11;7;
62249;PMS5003;48237;50.140;8.486;2023-04-03T08:49:18;11;7;
62249;PMS5003;48237;50.140;8.486;2023-04-03T08:51:51;7;6;
62249;PMS5003;48237;50.140;8.486;2023-04-03T08:54:23;7;6;
62249;PMS5003;48237;50.140;8.486;2023-04-03T08:56:55;12;6;
62249;PMS5003;48237;50.140;8.486;2023-04-03T08:59:25;8;5;
62249;PMS5003;48237;50.140;8.486;2023-04-03T09:01:56;4;4;
62249;PMS5003;48237;50.140;8.486;2023-04-03T09:04:25;7;5;
62249;PMS5003;48237;50.140;8.486;2023-04-03T09:06:55;7;5;
62249;PMS5003;48237;50.140;8.486;2023-04-03T09:09:30;4;4;
62249;PMS5003;48237;50.140;8.486;2023-04-03T09:12:04;5;5;
62249;PMS5003;48237;50.140;8.486;2023-04-03T09:14:39;5;5;
62249;PMS5003;48237;50.140;8.486;2023-04-03T09:17:14;6;5;
62249;PMS5003;48237;50.140;8.486;2023-04-03T09:19:48;6;5;
62249;PMS5003;48237;50.140;8.486;2023-04-03T09:22:21;9;7;
62249;PMS5003;48237;50.140;8.486;2023-04-03T09:24:53;6;4;
62249;PMS5003;48237;50.140;8.486;2023-04-03T09:27:26;5;4;
62249;PMS5003;48237;50.140;8.486;2023-04-03T09:29:54;5;5;
62249;PMS5003;48237;50.140;8.486;2023-04-03T09:32:25;11;11;
62249;PMS5003;48237;50.140;8.486;2023-04-03T09:34:55;7;5;
62249;PMS5003;48237;50.140;8.486;2023-04-03T09:37:34;5;5;
62249;PMS5003;48237;50.140;8.486;2023-04-03T09:40:04;6;5;
62249;PMS5003;48237;50.140;8.486;2023-04-03T09:42:33;8;8;
62249;PMS5003;48237;50.140;8.486;2023-04-03T09:45:20;5;4;
62249;PMS5003;48237;50.140;8.486;2023-04-03T09:47:50;9;5;
62249;PMS5003;48237;50.140;8.486;2023-04-03T09:50:33;6;6;
62249;PMS5003;48237;50.140;8.486;2023-04-03T09:53:04;7;6;
62249;PMS5003;48237;50.140;8.486;2023-04-03T09:55:33;8;7;
62249;PMS5003;48237;50.140;8.486;2023-04-03T09:58:22;10;6;
62249;PMS5003;48237;50.140;8.486;2023-04-03T10:00:54;6;6;
62249;PMS5003;48237;50.140;8.486;2023-04-03T10:03:23;4;4;
62249;PMS5003;48237;50.140;8.486;2023-04-03T10:05:53;6;6;
62249;PMS5003;48237;50.140;8.486;2023-04-03T10:08:21;5;4;
62249;PMS5003;48237;50.140;8.486;2023-04-03T10:11:06;5;5;
62249;PMS5003;48237;50.140;8.486;2023-04-03T10:13:49;9;6;
62249;PMS5003;48237;50.140;8.486;2023-04-03T10:16:18;7;6;
62249;PMS5003;48237;50.140;8.486;2023-04-03T10:18:52;9;6;
62249;PMS5003;48237;50.140;8.486;2023-04-03T10:21:32;10;5;
62249;PMS5003;48237;50.140;8.486;2023-04-03T10:24:08;7;6;
62249;PMS5003;48237;50.140;8.486;2023-04-03T10:26:39;8;7;
62249;PMS5003;48237;50.140;8.486;2023-04-03T10:29:18;8;6;
62249;PMS5003;48237;50.140;8.486;2023-04-03T10:31:57;8;7;
62249;PMS5003;48237;50.140;8.486;2023-04-03T10:34:35;9;6;
62249;PMS5003;48237;50.140;8.486;2023-04-03T10:37:08;9;6;
62249;PMS5003;48237;50.140;8.486;2023-04-03T10:39:43;6;5;
62249;PMS5003;48237;50.140;8.486;2023-04-03T10:42:18;6;6;
62249;PMS5003;48237;50.140;8.486;2023-04-03T10:44:58;9;7;
62249;PMS5003;48237;50.140;8.486;2023-04-03T10:47:37;8;7;
62249;PMS5003;48237;50.140;8.486;2023-04-03T10:50:22;7;7;
62249;PMS5003;48237;50.140;8.486;2023-04-03T10:52:55;9;6;
62249;PMS5003;48237;50.140;8.486;2023-04-03T10:55:32;6;6;
62249;PMS5003;48237;50.140;8.486;2023-04-03T10:58:06;9;9;
62249;PMS5003;48237;50.140;8.486;2023-04-03T11:00:41;6;6;
62249;PMS5003;48237;50.140;8.486;2023-04-03T11:03:13;10;8;
62249;PMS5003;48237;50.140;8.486;2023-04-03T11:05:44;10;7;
62249;PMS5003;48237;50.140;8.486;2023-04-03T11:08:17;8;7;
62249;PMS5003;48237;50.140;8.486;2023-04-03T11:10:51;9;7;
62249;PMS5003;48237;50.140;8.486;2023-04-03T11:13:23;9;7;
62249;PMS5003;48237;50.140;8.486;2023-04-03T11:15:54;8;6;
62249;PMS5003;48237;50.140;8.486;2023-04-03T11:18:26;6;6;
62249;PMS5003;48237;50.140;8.486;2023-04-03T11:20:59;8;7;
62249;PMS5003;48237;50.140;8.486;2023-04-03T11:23:30;10;8;
62249;PMS5003;48237;50.140;8.486;2023-04-03T11:26:04;10;7;
62249;PMS5003;48237;50.140;8.486;2023-04-03T11:28:36;9;9;
62249;PMS5003;48237;50.140;8.486;2023-04-03T11:31:06;9;7;
62249;PMS5003;48237;50.140;8.486;2023-04-03T11:33:43;11;7;
62249;PMS5003;48237;50.140;8.486;2023-04-03T11:36:19;11;8;
62249;PMS5003;48237;50.140;8.486;2023-04-03T11:38:51;8;7;
62249;PMS5003;48237;50.140;8.486;2023-04-03T11:41:25;8;5;
62249;PMS5003;48237;50.140;8.486;2023-04-03T11:43:56;13;9;
62249;PMS5003;48237;50.140;8.486;2023-04-03T11:46:48;6;6;
62249;PMS5003;48237;50.140;8.486;2023-04-03T11:51:43;9;7;
62249;PMS5003;48237;50.140;8.486;2023-04-03T11:55:54;8;8;
62249;PMS5003;48237;50.140;8.486;2023-04-03T11:58:25;9;9;
62249;PMS5003;48237;50.140;8.486;2023-04-03T12:00:55;10;8;
62249;PMS5003;48237;50.140;8.486;2023-04-03T12:03:57;7;7;
62249;PMS5003;48237;50.140;8.486;2023-04-03T12:07:14;8;6;
62249;PMS5003;48237;50.140;8.486;2023-04-03T12:09:56;6;6;
62249;PMS5003;48237;50.140;8.486;2023-04-03T12:12:28;10;8;
62249;PMS5003;48237;50.140;8.486;2023-04-03T12:16:04;10;7;
62249;PMS5003;48237;50.140;8.486;2023-04-03T12:18:42;7;7;
62249;PMS5003;48237;50.140;8.486;2023-04-03T12:21:20;7;7;
62249;PMS5003;48237;50.140;8.486;2023-04-03T12:23:57;8;7;
62249;PMS5003;48237;50.140;8.486;2023-04-03T12:26:28;9;8;
62249;PMS5003;48237;50.140;8.486;2023-04-03T12:29:01;6;6;
62249;PMS5003;48237;50.140;8.486;2023-04-03T12:31:39;8;7;
62249;PMS5003;48237;50.140;8.486;2023-04-03T12:34:17;9;8;
62249;PMS5003;48237;50.140;8.486;2023-04-03T12:36:59;11;8;
62249;PMS5003;48237;50.140;8.486;2023-04-03T12:39:36;8;7;
62249;PMS5003;48237;50.140;8.486;2023-04-03T12:42:24;10;10;
62249;PMS5003;48237;50.140;8.486;2023-04-03T12:45:09;8;8;
62249;PMS5003;48237;50.140;8.486;2023-04-03T12:47:43;9;7;
62249;PMS5003;48237;50.140;8.486;2023-04-03T12:50:21;9;6;
62249;PMS5003;48237;50.140;8.486;2023-04-03T12:52:54;9;7;
62249;PMS5003;48237;50.140;8.486;2023-04-03T12:55:25;9;7;
62249;PMS5003;48237;50.140;8.486;2023-04-03T12:57:52;6;6;
62249;PMS5003;48237;50.140;8.486;2023-04-03T13:00:29;9;8;
62249;PMS5003;48237;50.140;8.486;2023-04-03T13:02:58;8;7;
62249;PMS5003;48237;50.140;8.486;2023-04-03T13:05:27;11;5;
62249;PMS5003;48237;50.140;8.486;2023-04-03T13:07:58;9;7;
62249;PMS5003;48237;50.140;8.486;2023-04-03T13:10:27;6;6;
62249;PMS5003;48237;50.140;8.486;2023-04-03T13:12:56;8;7;
62249;PMS5003;48237;50.140;8.486;2023-04-03T13:15:40;5;5;
62249;PMS5003;48237;50.140;8.486;2023-04-03T13:18:21;12;8;
62249;PMS5003;48237;50.140;8.486;2023-04-03T13:20:49;10;8;
62249;PMS5003;48237;50.140;8.486;2023-04-03T13:23:17;10;7;
62249;PMS5003;48237;50.140;8.486;2023-04-03T13:25:46;5;5;
62249;PMS5003;48237;50.140;8.486;2023-04-03T13:28:15;9;7;
62249;PMS5003;48237;50.140;8.486;2023-04-03T13:30:54;8;8;
62249;PMS5003;48237;50.140;8.486;2023-04-03T13:33:26;7;7;
62249;PMS5003;48237;50.140;8.486;2023-04-03T13:35:55;9;8;
62249;PMS5003;48237;50.140;8.486;2023-04-03T13:38:27;8;8;
62249;PMS5003;48237;50.140;8.486;2023-04-03T13:40:56;8;7;
62249;PMS5003;48237;50.140;8.486;2023-04-03T13:43:25;6;5;
62249;PMS5003;48237;50.140;8.486;2023-04-03T13:45:56;5;5;
62249;PMS5003;48237;50.140;8.486;2023-04-03T13:48:27;6;6;
62249;PMS5003;48237;50.140;8.486;2023-04-03T13:51:05;8;7;
62249;PMS5003;48237;50.140;8.486;2023-04-03T13:53:44;10;8;
62249;PMS5003;48237;50.140;8.486;2023-04-03T13:56:17;8;8;
62249;PMS5003;48237;50.140;8.486;2023-04-03T13:58:57;8;8;
62249;PMS5003;48237;50.140;8.486;2023-04-03T14:01:33;10;7;
62249;PMS5003;48237;50.140;8.486;2023-04-03T14:04:11;8;8;
62249;PMS5003;48237;50.140;8.486;2023-04-03T14:06:42;7;6;
62249;PMS5003;48237;50.140;8.486;2023-04-03T14:09:11;8;7;
62249;PMS5003;48237;50.140;8.486;2023-04-03T14:11:39;11;6;
62249;PMS5003;48237;50.140;8.486;2023-04-03T14:14:10;7;7;
62249;PMS5003;48237;50.140;8.486;2023-04-03T14:16:41;6;6;
62249;PMS5003;48237;50.140;8.486;2023-04-03T14:19:16;9;6;
62249;PMS5003;48237;50.140;8.486;2023-04-03T14:21:46;7;7;
62249;PMS5003;48237;50.140;8.486;2023-04-03T14:24:13;9;7;
62249;PMS5003;48237;50.140;8.486;2023-04-03T14:26:40;8;5;
62249;PMS5003;48237;50.140;8.486;2023-04-03T14:29:09;8;7;
62249;PMS5003;48237;50.140;8.486;2023-04-03T14:31:38;6;6;
62249;PMS5003;48237;50.140;8.486;2023-04-03T14:34:06;5;5;
62249;PMS5003;48237;50.140;8.486;2023-04-03T14:36:33;7;5;
62249;PMS5003;48237;50.140;8.486;2023-04-03T14:39:01;7;6;
62249;PMS5003;48237;50.140;8.486;2023-04-03T14:41:29;7;6;
62249;PMS5003;48237;50.140;8.486;2023-04-03T14:43:56;6;6;
62249;PMS5003;48237;50.140;8.486;2023-04-03T14:46:25;7;3;
62249;PMS5003;48237;50.140;8.486;2023-04-03T14:48:55;7;5;
62249;PMS5003;48237;50.140;8.486;2023-04-03T14:51:23;9;5;
62249;PMS5003;48237;50.140;8.486;2023-04-03T14:53:50;4;4;
62249;PMS5003;48237;50.140;8.486;2023-04-03T14:56:19;4;4;
62249;PMS5003;48237;50.140;8.486;2023-04-03T14:58:57;5;5;
62249;PMS5003;48237;50.140;8.486;2023-04-03T15:01:26;4;4;
62249;PMS5003;48237;50.140;8.486;2023-04-03T15:03:54;4;4;
62249;PMS5003;48237;50.140;8.486;2023-04-03T15:06:22;4;3;
62249;PMS5003;48237;50.140;8.486;2023-04-03T15:08:50;3;3;
62249;PMS5003;48237;50.140;8.486;2023-04-03T15:11:17;5;5;
62249;PMS5003;48237;50.140;8.486;2023-04-03T15:13:44;4;3;
62249;PMS5003;48237;50.140;8.486;2023-04-03T15:16:13;3;3;
62249;PMS5003;48237;50.140;8.486;2023-04-03T15:18:42;6;4;
62249;PMS5003;48237;50.140;8.486;2023-04-03T15:21:10;3;3;
62249;PMS5003;48237;50.140;8.486;2023-04-03T15:23:37;5;3;
62249;PMS5003;48237;50.140;8.486;2023-04-03T15:26:04;3;3;
62249;PMS5003;48237;50.140;8.486;2023-04-03T15:28:33;5;4;
62249;PMS5003;48237;50.140;8.486;2023-04-03T15:31:01;3;3;
62249;PMS5003;48237;50.140;8.486;2023-04-03T15:33:30;6;3;
62249;PMS5003;48237;50.140;8.486;2023-04-03T15:35:59;3;3;
62249;PMS5003;48237;50.140;8.486;2023-04-03T15:38:26;6;4;
62249;PMS5003;48237;50.140;8.486;2023-04-03T15:40:53;4;2;
62249;PMS5003;48237;50.140;8.486;2023-04-03T15:43:21;3;3;
62249;PMS5003;48237;50.140;8.486;2023-04-03T15:45:48;3;3;
62249;PMS5003;48237;50.140;8.486;2023-04-03T15:48:16;2;2;
62249;PMS5003;48237;50.140;8.486;2023-04-03T15:50:44;5;3;
62249;PMS5003;48237;50.140;8.486;2023-04-03T15:53:11;2;2;
62249;PMS5003;48237;50.140;8.486;2023-04-03T15:55:38;5;3;
62249;PMS5003;48237;50.140;8.486;2023-04-03T15:58:05;4;4;
62249;PMS5003;48237;50.140;8.486;2023-04-03T16:00:32;5;2;
62249;PMS5003;48237;50.140;8.486;2023-04-03T16:03:00;4;3;
62249;PMS5003;48237;50.140;8.486;2023-04-03T16:05:31;2;2;
62249;PMS5003;48237;50.140;8.486;2023-04-03T16:08:00;3;3;
62249;PMS5003;48237;50.140;8.486;2023-04-03T16:10:27;4;3;
62249;PMS5003;48237;50.140;8.486;2023-04-03T16:12:55;6;4;
62249;PMS5003;48237;50.140;8.486;2023-04-03T16:15:22;6;4;
62249;PMS5003;48237;50.140;8.486;2023-04-03T16:17:49;6;2;
62249;PMS5003;48237;50.140;8.486;2023-04-03T16:20:17;2;2;
62249;PMS5003;48237;50.140;8.486;2023-04-03T16:22:45;3;3;
62249;PMS5003;48237;50.140;8.486;2023-04-03T16:25:12;3;3;
62249;PMS5003;48237;50.140;8.486;2023-04-03T16:27:39;4;4;
62249;PMS5003;48237;50.140;8.486;2023-04-03T16:30:07;3;3;
62249;PMS5003;48237;50.140;8.486;2023-04-03T16:32:36;5;4;
62249;PMS5003;48237;50.140;8.486;2023-04-03T16:35:05;3;3;
62249;PMS5003;48237;50.140;8.486;2023-04-03T16:37:32;4;3;
62249;PMS5003;48237;50.140;8.486;2023-04-03T16:40:00;5;3;
62249;PMS5003;48237;50.140;8.486;2023-04-03T16:42:27;3;3;
62249;PMS5003;48237;50.140;8.486;2023-04-03T16:44:54;5;4;
62249;PMS5003;48237;50.140;8.486;2023-04-03T16:47:21;3;3;
62249;PMS5003;48237;50.140;8.486;2023-04-03T16:49:48;5;3;
62249;PMS5003;48237;50.140;8.486;2023-04-03T16:52:16;3;3;
62249;PMS5003;48237;50.140;8.486;2023-04-03T16:54:43;16;11;
62249;PMS5003;48237;50.140;8.486;2023-04-03T16:57:10;6;5;
62249;PMS5003;48237;50.140;8.486;2023-04-03T16:59:37;5;3;
62249;PMS5003;48237;50.140;8.486;2023-04-03T17:02:04;3;2;
62249;PMS5003;48237;50.140;8.486;2023-04-03T17:04:31;5;5;
62249;PMS5003;48237;50.140;8.486;2023-04-03T17:06:58;3;3;
62249;PMS5003;48237;50.140;8.486;2023-04-03T17:09:26;4;3;
62249;PMS5003;48237;50.140;8.486;2023-04-03T17:11:53;3;3;
62249;PMS5003;48237;50.140;8.486;2023-04-03T17:14:20;5;3;